If you wish to contribute or participate in the discussions about articles you are invited to join SKYbrary as a registered user

 Actions

Libertador General Jose de San Martin Airport

From SKYbrary Wiki

SARP
Airport
ICAO: SARP – IATA: PSS
Summary
Name Libertador General Jose de San Martin Airport
Region South America and Caribbean
Territory Argentina AR.gif
Location Posadas, Misiones
Serving Posadas
Elevation 131.064 m
430 ft
430 ft131.064 m
Type medium airport
Coordinates 27° 23' 9.02" S, 55° 58' 14.62" W
Runways
Designator Length Width Surface ROPS
1/19 2200 m7,217.848 ft
30 m98.425 ft
ASP yes/yes


METAR
Observation SARP 191200Z 05005KT 9999 FEW035 BKN200 29/23 Q1014
Station Posadas Aero.
Date/Time 19 November 2019 12:00:00
Wind direction 50°
Wind speed 05 kts
Lowest cloud amount few clouds
Temperature 29°C
Dew point 23°C
Humidity 70%
QNH 1014 hPa
Weather condition n/a

Airport serving city of Posadas, Misiones province, Argentina

Climatology

Humid Subtropical climate (Köppen climate classification Cfa).

Maps

Terrain

Loading map...

Airport Layout

Loading map...


Accidents & Serious Incidents at or in vicinity of SARP

None on SKYbrary